createdAt,value
2019-02-23T00:01:19.183Z,51.08
2019-02-23T00:03:48.583Z,51.13
2019-02-23T00:06:29.007Z,52.78
2019-02-23T00:08:48.943Z,49.60
2019-02-23T00:11:18.293Z,53.17
2019-02-23T00:13:47.638Z,53.15
2019-02-23T00:16:16.948Z,54.08
2019-02-23T00:18:46.238Z,56.02
2019-02-23T00:21:15.559Z,53.40
2019-02-23T00:23:44.895Z,56.77
2019-02-23T00:26:14.230Z,55.80
2019-02-23T00:28:43.572Z,56.00
2019-02-23T00:31:12.861Z,57.00
2019-02-23T00:33:42.176Z,55.33
2019-02-23T00:36:11.476Z,57.05
2019-02-23T00:38:40.775Z,57.45
2019-02-23T00:41:10.053Z,58.50
2019-02-23T00:43:39.347Z,56.50
2019-02-23T00:46:08.747Z,54.83
2019-02-23T00:48:38.061Z,57.55
2019-02-23T00:51:07.335Z,53.68
2019-02-23T00:53:36.673Z,56.13
2019-02-23T00:56:05.954Z,54.63
2019-02-23T00:58:35.250Z,56.68
2019-02-23T01:01:04.670Z,55.97
2019-02-23T01:03:34.037Z,57.08
2019-02-23T01:06:03.374Z,60.05
2019-02-23T01:08:32.709Z,57.05
2019-02-23T01:11:02.011Z,57.95
2019-02-23T01:13:31.346Z,56.95
2019-02-23T01:16:00.628Z,58.08
2019-02-23T01:18:29.963Z,55.58
2019-02-23T01:20:59.310Z,58.05
2019-02-23T01:23:28.636Z,57.20
2019-02-23T01:25:57.959Z,56.60
2019-02-23T01:28:27.237Z,59.42
2019-02-23T01:30:56.530Z,61.60
2019-02-23T01:33:25.839Z,56.42
2019-02-23T01:35:55.186Z,57.43
2019-02-23T01:38:24.482Z,55.78
2019-02-23T01:40:53.798Z,54.95
2019-02-23T01:43:23.071Z,61.45
2019-02-23T01:45:52.387Z,54.77
2019-02-23T01:48:21.658Z,56.00
2019-02-23T01:50:50.974Z,55.35
2019-02-23T01:53:20.243Z,56.48
2019-02-23T01:55:49.558Z,57.58
2019-02-23T01:58:18.917Z,55.90
2019-02-23T02:00:48.337Z,57.73
2019-02-23T02:03:17.644Z,56.37
2019-02-23T02:05:47.043Z,52.33
2019-02-23T02:08:16.311Z,53.52
2019-02-23T02:10:45.624Z,56.20
2019-02-23T02:13:14.926Z,54.75
2019-02-23T02:15:44.147Z,55.40
2019-02-23T02:18:13.460Z,55.73
2019-02-23T02:20:42.766Z,54.00
2019-02-23T02:23:12.095Z,50.43
2019-02-23T02:25:41.511Z,52.20
2019-02-23T02:28:10.859Z,53.35
2019-02-23T02:30:40.067Z,52.78
2019-02-23T02:33:09.401Z,57.00
2019-02-23T02:35:38.694Z,55.83
2019-02-23T02:38:07.990Z,55.12
2019-02-23T02:40:37.248Z,56.75
2019-02-23T02:43:06.517Z,56.45
2019-02-23T02:45:35.775Z,57.55
2019-02-23T02:48:05.069Z,54.05
2019-02-23T02:50:34.529Z,55.00
2019-02-23T02:53:03.913Z,56.95
2019-02-23T02:55:33.200Z,56.75
2019-02-23T02:58:02.552Z,58.85
2019-02-23T03:00:31.900Z,59.27
2019-02-23T03:03:01.205Z,57.27
2019-02-23T03:05:30.475Z,57.58
2019-02-23T03:07:59.780Z,65.03
2019-02-23T03:10:29.139Z,57.08
2019-02-23T03:12:58.405Z,58.05
2019-02-23T03:15:27.691Z,58.42
2019-02-23T03:17:56.971Z,57.33
2019-02-23T03:20:36.277Z,57.30
2019-02-23T03:22:57.238Z,52.48
2019-02-23T03:25:26.560Z,60.83
2019-02-23T03:27:55.829Z,60.90
2019-02-23T03:30:25.248Z,59.87
2019-02-23T03:32:54.494Z,53.70
2019-02-23T03:35:23.850Z,62.20
2019-02-23T03:37:53.125Z,62.60
2019-02-23T03:40:22.413Z,61.68
2019-02-23T03:42:51.674Z,62.20
2019-02-23T03:45:20.969Z,67.17
2019-02-23T03:47:50.231Z,62.05
2019-02-23T03:50:19.516Z,61.30
2019-02-23T03:52:48.830Z,61.60
2019-02-23T03:55:18.103Z,60.60
2019-02-23T03:57:47.382Z,64.45
2019-02-23T04:00:16.671Z,56.80
2019-02-23T04:02:46.008Z,63.50
2019-02-23T04:05:15.298Z,60.13
2019-02-23T04:07:44.553Z,59.88
2019-02-23T04:10:13.932Z,63.77
2019-02-23T04:12:43.178Z,68.92
2019-02-23T04:15:12.502Z,62.10
2019-02-23T04:17:41.758Z,64.15
2019-02-23T04:20:11.039Z,64.60
2019-02-23T04:22:40.341Z,61.90
2019-02-23T04:25:09.616Z,64.03
2019-02-23T04:27:38.918Z,65.28
2019-02-23T04:30:08.302Z,67.12
2019-02-23T04:32:37.601Z,65.15
2019-02-23T04:35:06.897Z,64.47
2019-02-23T04:37:36.171Z,64.53
2019-02-23T04:40:05.839Z,60.43
2019-02-23T04:42:35.145Z,65.17
2019-02-23T04:45:04.634Z,69.00
2019-02-23T04:47:33.930Z,64.40
2019-02-23T04:50:03.200Z,65.08
2019-02-23T04:52:32.463Z,63.78
2019-02-23T04:55:01.728Z,64.05
2019-02-23T04:57:31.024Z,67.60
2019-02-23T05:00:00.349Z,59.40
2019-02-23T05:02:29.746Z,66.57
2019-02-23T05:04:59.069Z,61.90
2019-02-23T05:07:28.342Z,58.45
2019-02-23T05:09:57.621Z,58.55
2019-02-23T05:12:28.229Z,58.00
2019-02-23T05:14:57.575Z,61.28
2019-02-23T05:17:26.858Z,64.97
2019-02-23T05:19:56.138Z,67.03
2019-02-23T05:22:25.417Z,69.15
2019-02-23T05:24:54.748Z,77.20
2019-02-23T05:27:24.049Z,68.92
2019-02-23T05:29:53.318Z,68.10
2019-02-23T05:32:22.641Z,68.30
2019-02-23T05:34:51.917Z,63.23
2019-02-23T05:37:21.233Z,57.27
2019-02-23T05:39:50.538Z,63.48
2019-02-23T05:42:19.847Z,61.50
2019-02-23T05:44:49.150Z,60.12
2019-02-23T05:47:18.408Z,60.30
2019-02-23T05:49:47.736Z,63.60
2019-02-23T05:52:16.992Z,61.63
2019-02-23T05:54:46.308Z,61.23
2019-02-23T05:57:15.614Z,65.53
2019-02-23T05:59:45.049Z,66.72
2019-02-23T06:02:14.392Z,59.75
2019-02-23T06:04:43.672Z,59.55
2019-02-23T06:07:12.994Z,63.90
2019-02-23T06:09:42.294Z,54.40
2019-02-23T06:12:11.607Z,57.83
2019-02-23T06:14:40.970Z,59.10
2019-02-23T06:17:10.271Z,61.23
2019-02-23T06:19:39.668Z,60.65
2019-02-23T06:22:08.950Z,60.55
2019-02-23T06:24:38.258Z,58.28
2019-02-23T06:27:07.555Z,66.60
2019-02-23T06:29:36.962Z,62.17
2019-02-23T06:32:06.235Z,63.78
2019-02-23T06:34:35.610Z,63.63
2019-02-23T06:37:04.977Z,65.67
2019-02-23T06:39:34.349Z,64.75
2019-02-23T06:42:03.630Z,60.27
2019-02-23T06:44:33.038Z,61.70
2019-02-23T06:47:02.369Z,60.20
2019-02-23T06:49:31.642Z,64.90
2019-02-23T06:52:04.227Z,63.02
2019-02-23T06:54:31.986Z,65.15
2019-02-23T06:57:01.356Z,62.17
2019-02-23T06:59:30.722Z,61.75
2019-02-23T07:02:00.150Z,60.28
2019-02-23T07:04:29.426Z,63.55
2019-02-23T07:06:58.753Z,60.75
2019-02-23T07:09:28.071Z,63.90
2019-02-23T07:11:57.456Z,65.45
2019-02-23T07:14:26.744Z,64.60
2019-02-23T07:16:56.047Z,58.00
2019-02-23T07:19:25.422Z,60.03
2019-02-23T07:21:54.734Z,61.98
2019-02-23T07:24:24.018Z,58.42
2019-02-23T07:26:53.318Z,61.53
2019-02-23T07:29:22.634Z,57.95
2019-02-23T07:31:51.962Z,58.00
2019-02-23T07:34:21.243Z,62.15
2019-02-23T07:36:50.520Z,55.15
2019-02-23T07:39:19.798Z,59.60
2019-02-23T07:41:49.110Z,58.30
2019-02-23T07:44:18.461Z,55.80
2019-02-23T07:46:47.934Z,56.35
2019-02-23T07:49:17.424Z,50.33
2019-02-23T07:51:46.727Z,55.10
2019-02-23T07:54:15.987Z,50.00
2019-02-23T07:56:45.324Z,48.63
2019-02-23T07:59:14.653Z,45.20
2019-02-23T08:01:44.158Z,44.45
2019-02-23T08:04:13.421Z,42.85
2019-02-23T08:06:42.688Z,45.28
2019-02-23T08:09:12.377Z,39.78
2019-02-23T08:11:41.816Z,41.30
2019-02-23T08:14:11.160Z,39.58
2019-02-23T08:16:40.446Z,37.78
2019-02-23T08:19:09.761Z,35.10
2019-02-23T08:21:39.077Z,34.45
2019-02-23T08:24:08.469Z,34.63
2019-02-23T08:26:37.811Z,33.45
2019-02-23T08:29:07.175Z,30.88
2019-02-23T08:31:36.524Z,31.27
2019-02-23T08:34:06.008Z,30.08
2019-02-23T08:36:35.438Z,29.35
2019-02-23T08:39:05.323Z,31.40
2019-02-23T08:41:34.641Z,31.73
2019-02-23T08:44:03.951Z,28.98
2019-02-23T08:46:33.293Z,30.62
2019-02-23T08:49:03.763Z,28.15
2019-02-23T08:51:33.029Z,32.48
2019-02-23T08:54:02.352Z,32.05
2019-02-23T08:56:34.009Z,31.48
2019-02-23T08:59:03.332Z,29.92
2019-02-23T09:01:32.725Z,29.35
2019-02-23T09:04:02.326Z,31.60
2019-02-23T09:06:31.945Z,30.17
2019-02-23T09:09:01.326Z,28.15
2019-02-23T09:11:33.693Z,26.70
2019-02-23T09:14:03.292Z,28.87
2019-02-23T09:16:32.794Z,26.40
2019-02-23T09:19:02.098Z,25.80
2019-02-23T09:21:32.988Z,25.43
2019-02-23T09:24:02.377Z,25.80
2019-02-23T09:26:31.745Z,24.12
2019-02-23T09:29:06.410Z,25.70
2019-02-23T09:31:35.835Z,24.27
2019-02-23T09:34:05.412Z,24.52
2019-02-23T09:36:34.764Z,25.88
2019-02-23T09:39:04.673Z,25.85
2019-02-23T09:41:34.003Z,24.47
2019-02-23T09:44:03.302Z,26.80
2019-02-23T09:46:32.664Z,24.52
2019-02-23T09:49:01.942Z,26.45
2019-02-23T09:51:31.341Z,24.15
2019-02-23T09:54:00.647Z,24.02
2019-02-23T09:56:29.937Z,25.65
2019-02-23T09:58:59.382Z,24.30
2019-02-23T10:01:28.878Z,24.37
2019-02-23T10:03:58.169Z,22.55
2019-02-23T10:06:27.481Z,24.43
2019-02-23T10:08:56.771Z,24.10
2019-02-23T10:11:26.064Z,24.25
2019-02-23T10:13:55.391Z,23.35
2019-02-23T10:16:24.727Z,24.02
2019-02-23T10:18:54.099Z,27.15
2019-02-23T10:21:23.425Z,23.57
2019-02-23T10:23:52.771Z,22.77
2019-02-23T10:26:22.099Z,23.95
2019-02-23T10:28:51.583Z,24.18
2019-02-23T10:31:20.941Z,22.55
2019-02-23T10:33:50.229Z,22.93
2019-02-23T10:36:19.608Z,24.85
2019-02-23T10:38:48.957Z,28.00
2019-02-23T10:41:18.305Z,31.77
2019-02-23T10:43:47.649Z,30.43
2019-02-23T10:46:17.028Z,23.50
2019-02-23T10:48:46.379Z,37.08
2019-02-23T10:51:15.705Z,26.33
2019-02-23T10:53:45.111Z,26.25
2019-02-23T10:56:14.476Z,24.07
2019-02-23T10:58:43.764Z,24.35
2019-02-23T11:01:13.256Z,51.20
2019-02-23T11:03:42.617Z,23.77
2019-02-23T11:06:11.965Z,45.45
2019-02-23T11:08:41.278Z,77.05
2019-02-23T11:11:10.639Z,26.45
2019-02-23T11:13:39.952Z,26.48
2019-02-23T11:16:09.441Z,31.82
2019-02-23T11:18:38.860Z,73.92
2019-02-23T11:21:08.203Z,44.53
2019-02-23T11:23:44.228Z,48.92
2019-02-23T11:26:08.697Z,27.17
2019-02-23T11:28:38.055Z,26.15
2019-02-23T11:31:07.387Z,21.15
2019-02-23T11:33:36.711Z,21.07
2019-02-23T11:36:06.085Z,32.85
2019-02-23T11:38:35.397Z,19.45
2019-02-23T11:41:04.755Z,23.13
2019-02-23T11:43:34.117Z,24.35
2019-02-23T11:46:03.460Z,60.70
2019-02-23T11:48:32.821Z,22.20
2019-02-23T11:51:02.146Z,21.55
2019-02-23T11:53:31.511Z,19.48
2019-02-23T11:56:00.971Z,20.97
2019-02-23T11:58:30.326Z,22.65
2019-02-23T12:00:59.686Z,37.58
2019-02-23T12:03:29.047Z,50.15
2019-02-23T12:05:58.363Z,17.40
2019-02-23T12:08:27.753Z,27.58
2019-02-23T12:10:57.048Z,18.82
2019-02-23T12:13:26.399Z,16.77
2019-02-23T12:15:55.707Z,34.58
2019-02-23T12:18:25.019Z,22.75
2019-02-23T12:20:54.342Z,27.27
2019-02-23T12:23:23.657Z,34.78
2019-02-23T12:25:53.006Z,64.27
2019-02-23T12:28:22.417Z,23.40
2019-02-23T12:30:51.803Z,64.97
2019-02-23T12:33:21.154Z,23.07
2019-02-23T12:35:50.466Z,34.53
2019-02-23T12:38:19.859Z,71.22
2019-02-23T12:40:49.203Z,23.52
2019-02-23T12:43:18.589Z,16.77
2019-02-23T12:45:47.888Z,17.37
2019-02-23T12:48:17.186Z,20.45
2019-02-23T12:50:46.527Z,28.27
2019-02-23T12:53:15.938Z,14.93
2019-02-23T12:55:48.643Z,20.89
2019-02-23T12:58:17.965Z,12.45
2019-02-23T13:00:47.299Z,10.68
2019-02-23T13:03:16.576Z,13.40
2019-02-23T13:05:45.896Z,9.60
2019-02-23T13:08:15.215Z,17.17
2019-02-23T13:10:44.649Z,10.93
2019-02-23T13:13:32.223Z,9.53
2019-02-23T13:16:19.185Z,9.00
2019-02-23T13:19:47.786Z,19.50
2019-02-23T13:22:47.464Z,12.00
2019-02-23T13:25:48.277Z,60.60
2019-02-23T13:28:39.920Z,21.68
2019-02-23T13:31:46.028Z,28.07
2019-02-23T13:35:01.831Z,85.75
2019-02-23T13:37:46.476Z,11.55
2019-02-23T13:40:46.607Z,8.60
2019-02-23T13:43:32.166Z,9.80
2019-02-23T13:46:10.976Z,7.12
2019-02-23T13:49:48.490Z,10.55
2019-02-23T13:52:45.286Z,8.05
2019-02-23T13:55:35.311Z,8.20
2019-02-23T13:58:10.900Z,10.23
2019-02-23T14:01:06.341Z,10.35
2019-02-23T14:04:00.723Z,8.45
2019-02-23T14:07:13.860Z,9.10
2019-02-23T14:10:17.867Z,8.18
2019-02-23T14:13:26.515Z,9.05
2019-02-23T14:16:30.771Z,10.15
2019-02-23T14:19:49.766Z,9.73
2019-02-23T14:22:36.569Z,8.93
2019-02-23T14:26:01.939Z,10.32
2019-02-23T14:28:54.379Z,9.70
2019-02-23T14:31:49.148Z,8.83
2019-02-23T14:34:55.279Z,9.35
2019-02-23T14:38:23.952Z,10.00
2019-02-23T14:41:28.095Z,9.28
2019-02-23T14:44:26.050Z,8.30
2019-02-23T14:47:45.267Z,9.65
2019-02-23T14:50:58.006Z,9.37
2019-02-23T14:54:04.244Z,11.40
2019-02-23T14:57:17.158Z,10.10
2019-02-23T15:00:33.423Z,16.02
2019-02-23T15:03:57.594Z,29.37
2019-02-23T15:06:51.090Z,10.15
2019-02-23T15:10:08.977Z,11.57
2019-02-23T15:13:34.440Z,14.90
2019-02-23T15:16:38.636Z,19.73
2019-02-23T15:20:03.951Z,14.98
2019-02-23T15:22:59.839Z,12.03
2019-02-23T15:26:04.846Z,10.05
2019-02-23T15:29:27.237Z,12.93
2019-02-23T15:32:26.269Z,9.43
2019-02-23T15:35:10.169Z,10.18
2019-02-23T15:38:13.214Z,11.80
2019-02-23T15:41:13.159Z,10.48
2019-02-23T15:44:06.998Z,12.53
2019-02-23T15:47:02.327Z,9.48
2019-02-23T15:49:41.164Z,15.53
2019-02-23T15:52:10.553Z,15.18
2019-02-23T15:54:39.980Z,9.58
2019-02-23T15:57:09.373Z,12.78
2019-02-23T15:59:40.525Z,19.50
2019-02-23T16:02:18.978Z,18.80
2019-02-23T16:04:48.332Z,12.10
2019-02-23T16:07:17.697Z,31.97
2019-02-23T16:09:47.136Z,36.95
2019-02-23T16:12:16.720Z,25.00
2019-02-23T16:14:46.088Z,19.57
2019-02-23T16:17:15.456Z,15.98
2019-02-23T16:19:44.796Z,15.28
2019-02-23T16:37:54.321Z,18.87
2019-02-23T16:40:33.007Z,12.20
2019-02-23T16:43:15.240Z,13.18
2019-02-23T16:45:56.828Z,13.95
2019-02-23T16:50:10.772Z,10.15
2019-02-23T16:52:09.301Z,13.50
2019-02-23T16:55:07.735Z,11.63
2019-02-23T17:04:53.460Z,16.12
2019-02-23T17:10:16.196Z,22.90
2019-02-23T17:13:47.861Z,22.20
2019-02-23T17:16:41.629Z,25.43
2019-02-23T17:19:44.456Z,28.15
2019-02-23T17:22:39.940Z,31.50
2019-02-23T17:25:36.115Z,26.20
2019-02-23T17:28:10.871Z,30.08
2019-02-23T17:36:52.876Z,24.20
2019-02-23T17:39:34.068Z,29.82
2019-02-23T17:42:27.730Z,29.42
2019-02-23T17:45:15.167Z,26.87
2019-02-23T17:48:09.164Z,29.18
2019-02-23T17:51:16.374Z,28.75
2019-02-23T18:03:31.536Z,90.03
2019-02-23T18:06:14.006Z,42.73
2019-02-23T18:09:07.998Z,40.23
2019-02-23T18:11:40.908Z,33.02
2019-02-23T18:14:11.056Z,33.30
2019-02-23T18:16:47.759Z,34.10
2019-02-23T18:19:24.247Z,29.92
2019-02-23T18:21:53.886Z,31.07
2019-02-23T18:24:39.374Z,29.82
2019-02-23T18:27:12.837Z,33.82
2019-02-23T18:29:46.455Z,32.53
2019-02-23T18:32:28.141Z,33.50
2019-02-23T18:35:09.764Z,32.48
2019-02-23T18:37:55.478Z,32.33
2019-02-23T18:40:40.178Z,31.13
2019-02-23T18:43:23.586Z,34.23
2019-02-23T18:46:10.274Z,30.85
2019-02-23T18:48:42.545Z,31.57
2019-02-23T18:54:14.597Z,30.75
2019-02-23T18:56:47.225Z,29.32
2019-02-23T18:59:27.466Z,30.15
2019-02-23T19:02:20.328Z,33.38
2019-02-23T19:04:53.251Z,34.70
2019-02-23T19:09:50.828Z,27.40
2019-02-23T19:12:26.710Z,34.80
2019-02-23T19:15:53.562Z,29.80
2019-02-23T19:19:32.369Z,56.00
2019-02-23T19:22:51.290Z,34.85
2019-02-23T19:26:07.834Z,36.50
2019-02-23T19:29:13.816Z,39.53
2019-02-23T19:32:09.609Z,33.95
2019-02-23T19:34:39.096Z,31.93
2019-02-23T19:37:08.512Z,31.25
2019-02-23T19:39:37.859Z,30.43
2019-02-23T19:42:08.203Z,29.95
2019-02-23T19:44:37.504Z,28.70
2019-02-23T19:47:28.139Z,29.15
2019-02-23T19:50:00.949Z,38.17
2019-02-23T19:52:30.475Z,31.82
2019-02-23T19:54:59.810Z,26.07
2019-02-23T19:57:29.315Z,27.73
2019-02-23T19:59:58.634Z,25.90
2019-02-23T20:02:28.016Z,25.15
2019-02-23T20:04:57.397Z,22.98
2019-02-23T20:07:26.768Z,24.15
2019-02-23T20:09:56.203Z,22.77
2019-02-23T20:12:25.508Z,27.27
2019-02-23T20:14:55.178Z,38.88
2019-02-23T20:17:24.548Z,26.85
2019-02-23T20:19:53.908Z,23.22
2019-02-23T20:22:23.374Z,20.57
2019-02-23T20:24:52.841Z,23.42
2019-02-23T20:27:22.305Z,24.87
2019-02-23T20:29:51.652Z,23.47
2019-02-23T20:32:20.968Z,20.92
2019-02-23T20:34:50.467Z,20.15
2019-02-23T20:37:19.824Z,21.00
2019-02-23T20:39:49.179Z,22.90
2019-02-23T20:42:18.909Z,18.85
2019-02-23T20:44:48.207Z,22.05
2019-02-23T20:47:17.621Z,19.00
2019-02-23T20:49:46.983Z,19.95
2019-02-23T20:52:16.282Z,16.02
2019-02-23T20:54:45.610Z,19.12
2019-02-23T20:57:14.943Z,19.60
2019-02-23T20:59:44.235Z,19.92
2019-02-23T21:02:13.538Z,21.68
2019-02-23T21:04:43.000Z,20.12
2019-02-23T21:07:12.307Z,19.73
2019-02-23T21:09:41.715Z,19.07
2019-02-23T21:12:11.024Z,20.60
2019-02-23T21:14:40.391Z,20.45
2019-02-23T21:17:09.709Z,16.67
2019-02-23T21:19:39.071Z,15.60
2019-02-23T21:22:08.403Z,18.15
2019-02-23T21:24:37.732Z,15.40
2019-02-23T21:27:12.807Z,16.42
2019-02-23T21:29:38.197Z,16.02
2019-02-23T21:32:07.609Z,16.75
2019-02-23T21:34:36.987Z,15.43
2019-02-23T21:37:06.376Z,15.18
2019-02-23T21:39:35.715Z,15.18
2019-02-23T21:42:05.033Z,15.00
2019-02-23T21:44:34.384Z,15.72
2019-02-23T21:47:03.713Z,14.90
2019-02-23T21:49:33.009Z,17.10
2019-02-23T21:52:02.366Z,16.40
2019-02-23T21:54:31.661Z,14.60
2019-02-23T21:57:01.029Z,14.28
2019-02-23T21:59:30.404Z,14.83
2019-02-23T22:01:59.737Z,15.50
2019-02-23T22:04:29.034Z,13.28
2019-02-23T22:06:58.394Z,15.80
2019-02-23T22:09:27.641Z,13.32
2019-02-23T22:11:56.930Z,16.32
2019-02-23T22:14:26.255Z,15.98
2019-02-23T22:16:55.545Z,14.97
2019-02-23T22:19:24.885Z,14.18
2019-02-23T22:21:54.168Z,14.07
2019-02-23T22:24:23.509Z,14.35
2019-02-23T22:26:52.793Z,14.47
2019-02-23T22:29:22.074Z,12.90
2019-02-23T22:31:51.346Z,14.23
2019-02-23T22:34:20.695Z,14.13
2019-02-23T22:36:49.985Z,14.20
2019-02-23T22:39:19.277Z,13.60
2019-02-23T22:41:49.852Z,14.55
2019-02-23T22:44:19.229Z,12.80
2019-02-23T22:46:48.511Z,14.47
2019-02-23T22:49:17.797Z,14.73
2019-02-23T22:51:47.084Z,16.37
2019-02-23T22:54:16.392Z,16.02
2019-02-23T22:56:45.656Z,14.95
2019-02-23T22:59:14.959Z,14.23
2019-02-23T23:01:44.422Z,14.98
2019-02-23T23:04:13.740Z,16.07
2019-02-23T23:06:43.012Z,16.50
2019-02-23T23:09:19.550Z,13.72
2019-02-23T23:11:48.841Z,14.98
2019-02-23T23:14:18.158Z,15.83
2019-02-23T23:16:47.438Z,15.63
2019-02-23T23:19:16.784Z,17.45
2019-02-23T23:21:46.060Z,18.75
2019-02-23T23:24:15.325Z,17.50
2019-02-23T23:26:44.599Z,17.48
2019-02-23T23:29:13.897Z,18.62
2019-02-23T23:31:43.195Z,17.52
2019-02-23T23:34:12.477Z,15.83
2019-02-23T23:36:41.778Z,15.88
2019-02-23T23:39:11.013Z,16.77
2019-02-23T23:41:40.270Z,16.23
2019-02-23T23:44:09.531Z,15.98
2019-02-23T23:46:38.795Z,17.20
2019-02-23T23:49:08.048Z,15.10
2019-02-23T23:51:37.322Z,15.50
2019-02-23T23:54:06.616Z,17.20
2019-02-23T23:56:35.880Z,17.60
2019-02-23T23:59:05.134Z,20.43
